Browns Valley, Minnesota
Current Conditions -  °F | °C
As of 9:56 PM on Sunday 21 Dec 2014 (Local Time) from KETH Reporting Station
Haze Haze  
Wind Chill: 24°   Ceiling: 1600
Heat Index: 32°   Visibility: 3mi
Dew Point: 32°   Wind: 9mph
Humidity: 100%   Direction: 130°SE
Pressure: 29.56"   Gusts: NA
Location:  45.6°N, 96.83°W
Report Text: KETH 220356Z AUTO 13008KT 3SM BR SCT005 OVC016 00/00 A2956 RMK AO2
Loading
Personal Weather Stations






























Interactive Weather Map New forecast layout! Learn more

10-Day Weather Forecast

Advertisements
Track Severe Weather on mobile